Hauptseite
METAR-TAF:

METAR-TAF

Flughäfen :

Emmen, Schweiz

Militärflugplatz Emmen

Breite: 47-05-32N, Länge: 8-18-16E, Höhe: 426 m

Beobachtung

Neuester Wetterbericht von vor 1 Stunde und 0 Minuten, um 04:50 UTC
Wind 3 kt aus Ost, variierte zwischen Nordost und Ost/Südost
Temperatur 11°C
Luftfeuchtigkeit 76%
Luftdruck 1019 hPa
Sichtweite: 8000 m
Durchbrochene Bewölkung in der Höhe von 3500 ft
Durchbrochene Bewölkung in der Höhe von 4000 ft
Regenschauer

METAR: LSME 260450Z 08003KT 040V120 8000 -SHRA BKN035 BKN040 11/07 Q1019 RMK BLU

Zeit: 07:50 (05:50 UTC)


TAF: fehlend

Wetterbeobachtungen und Prognosen von mehr als 4000 Flughäfen (METAR und TAF Bericht).

Die verfügbaren Stationen werden durch gelbe und rote Markierungen auf der Karte dargestellt.

Führen Sie die Maus auf sie, um den Namen der Station zu sehen.

Darauf klicken, um die Beobachtung von Wetterbeobachtungen und Prognosen zu sehen.

Um die Karte zu ändern : klicken Sie auf den grünen Tasten mit einem schwarzen Kreuz Zum Vergrößern, auf den grünen Button mit einem Gedankenstrich zu verkleinern, oder auf die grünen Pfeile für benachbarte Karten.


METAR-TAF: